createdAt,value
2022-10-03T00:02:18.396Z,62.46
2022-10-03T00:05:03.589Z,63.12
2022-10-03T00:08:09.022Z,63.16
2022-10-03T00:10:38.715Z,62.36
2022-10-03T00:13:51.866Z,63.41
2022-10-03T00:16:41.471Z,63.01
2022-10-03T00:19:42.970Z,63.71
2022-10-03T00:22:21.210Z,62.84
2022-10-03T00:25:29.548Z,63.92
2022-10-03T00:28:13.607Z,63.75
2022-10-03T00:31:01.329Z,63.93
2022-10-03T00:33:51.100Z,63.26
2022-10-03T00:36:55.504Z,64.19
2022-10-03T00:39:27.809Z,64.08
2022-10-03T00:42:06.613Z,64.21
2022-10-03T00:44:43.652Z,64.33
2022-10-03T00:47:22.218Z,64.64
2022-10-03T00:50:01.151Z,64.45
2022-10-03T00:52:40.026Z,64.68
2022-10-03T00:55:27.971Z,64.73
2022-10-03T00:58:16.470Z,64.84
2022-10-03T01:00:50.882Z,64.40
2022-10-03T01:03:28.446Z,64.82
2022-10-03T01:06:46.530Z,64.73
2022-10-03T01:09:27.417Z,64.94
2022-10-03T01:12:21.755Z,64.95
2022-10-03T01:14:57.284Z,63.99
2022-10-03T01:17:56.200Z,65.15
2022-10-03T01:20:47.418Z,65.06
2022-10-03T01:23:13.870Z,64.15
2022-10-03T01:26:37.155Z,65.01
2022-10-03T01:29:28.487Z,64.75
2022-10-03T01:32:05.391Z,65.22
2022-10-03T01:34:38.238Z,65.18
2022-10-03T01:37:22.625Z,65.51
2022-10-03T01:40:26.342Z,65.51
2022-10-03T01:43:14.801Z,65.06
2022-10-03T01:46:09.082Z,65.41
2022-10-03T01:49:00.427Z,65.73
2022-10-03T01:51:27.579Z,64.71
2022-10-03T01:54:20.064Z,64.72
2022-10-03T01:57:12.365Z,65.89
2022-10-03T01:59:45.613Z,65.74
2022-10-03T02:02:49.069Z,65.87
2022-10-03T02:05:25.837Z,65.91
2022-10-03T02:08:01.049Z,65.67
2022-10-03T02:11:02.735Z,66.38
2022-10-03T02:13:44.134Z,66.42
2022-10-03T02:16:15.913Z,66.26
2022-10-03T02:18:55.568Z,66.22
2022-10-03T02:21:27.033Z,65.74
2022-10-03T02:24:18.929Z,66.53
2022-10-03T02:26:48.107Z,65.58
2022-10-03T02:29:39.369Z,66.37
2022-10-03T02:32:24.222Z,66.61
2022-10-03T02:35:15.000Z,66.66
2022-10-03T02:37:48.458Z,65.45
2022-10-03T02:40:29.241Z,66.00
2022-10-03T02:43:52.854Z,66.43
2022-10-03T02:47:17.855Z,66.63
2022-10-03T02:50:02.879Z,65.48
2022-10-03T02:53:07.687Z,66.59
2022-10-03T02:56:11.814Z,66.57
2022-10-03T02:59:15.487Z,66.83
2022-10-03T03:01:52.423Z,66.64
2022-10-03T03:04:56.728Z,66.87
2022-10-03T03:07:38.383Z,66.91
2022-10-03T03:10:20.169Z,66.95
2022-10-03T03:13:08.199Z,66.89
2022-10-03T03:15:59.924Z,66.91
2022-10-03T03:18:34.539Z,66.94
2022-10-03T03:21:23.804Z,67.46
2022-10-03T03:24:05.851Z,66.81
2022-10-03T03:26:53.285Z,67.42
2022-10-03T03:29:44.432Z,67.11
2022-10-03T03:32:52.363Z,67.43
2022-10-03T03:35:46.717Z,66.95
2022-10-03T03:38:35.085Z,67.52
2022-10-03T03:41:21.194Z,67.25
2022-10-03T03:44:25.507Z,67.68
2022-10-03T03:47:30.290Z,67.48
2022-10-03T03:50:07.952Z,67.36
2022-10-03T03:52:49.627Z,67.43
2022-10-03T03:55:34.732Z,67.55
2022-10-03T03:58:40.236Z,67.59
2022-10-03T04:01:39.183Z,67.51
2022-10-03T04:04:44.195Z,67.00
2022-10-03T04:07:32.350Z,67.47
2022-10-03T04:10:32.992Z,67.43
2022-10-03T04:13:21.149Z,66.98
2022-10-03T04:16:13.938Z,67.25
2022-10-03T04:18:58.423Z,66.77
2022-10-03T04:21:28.331Z,67.12
2022-10-03T04:24:21.978Z,67.68
2022-10-03T04:27:25.678Z,67.63
2022-10-03T04:30:23.424Z,67.64
2022-10-03T04:33:02.089Z,67.37
2022-10-03T04:36:06.341Z,67.87
2022-10-03T04:39:00.977Z,67.96
2022-10-03T04:41:46.074Z,67.92
2022-10-03T04:44:39.320Z,67.95
2022-10-03T04:47:26.273Z,68.19
2022-10-03T04:49:56.202Z,67.16
2022-10-03T04:52:39.478Z,68.21
2022-10-03T04:55:06.648Z,67.76
2022-10-03T04:57:54.768Z,67.91
2022-10-03T05:00:41.597Z,68.31
2022-10-03T05:03:26.937Z,67.54
2022-10-03T05:06:18.152Z,68.11
2022-10-03T05:08:50.222Z,67.79
2022-10-03T05:11:45.489Z,68.14
2022-10-03T05:14:56.330Z,67.83
2022-10-03T05:17:37.366Z,67.52
2022-10-03T05:20:34.456Z,67.90
2022-10-03T05:23:25.036Z,67.61
2022-10-03T05:26:30.878Z,67.86
2022-10-03T05:29:03.752Z,67.71
2022-10-03T05:31:30.271Z,67.34
2022-10-03T05:34:04.327Z,67.68
2022-10-03T05:36:51.084Z,68.36
2022-10-03T05:39:23.572Z,67.91
2022-10-03T05:42:21.518Z,67.86
2022-10-03T05:45:07.078Z,68.11
2022-10-03T05:47:55.490Z,68.12
2022-10-03T05:50:43.646Z,67.77
2022-10-03T05:53:31.713Z,67.70
2022-10-03T05:56:22.883Z,68.21
2022-10-03T05:59:07.807Z,68.19
2022-10-03T06:01:46.135Z,68.07
2022-10-03T06:04:21.901Z,68.24
2022-10-03T06:06:53.325Z,68.19
2022-10-03T06:09:44.852Z,68.55
2022-10-03T06:12:25.385Z,68.14
2022-10-03T06:15:10.576Z,67.79
2022-10-03T06:18:02.025Z,68.18
2022-10-03T06:21:05.315Z,68.43
2022-10-03T06:23:31.828Z,67.67
2022-10-03T06:26:15.025Z,68.47
2022-10-03T06:29:22.248Z,68.62
2022-10-03T06:32:13.007Z,68.38
2022-10-03T06:35:17.353Z,68.44
2022-10-03T06:38:26.205Z,68.69
2022-10-03T06:41:04.344Z,68.05
2022-10-03T06:44:01.382Z,68.87
2022-10-03T06:46:46.354Z,68.71
2022-10-03T06:49:29.236Z,68.16
2022-10-03T06:52:04.962Z,68.77
2022-10-03T06:55:24.524Z,68.94
2022-10-03T06:58:28.489Z,68.82
2022-10-03T07:01:12.982Z,68.69
2022-10-03T07:04:30.685Z,68.84
2022-10-03T07:07:32.826Z,68.84
2022-10-03T07:10:29.590Z,68.93
2022-10-03T07:13:24.260Z,69.00
2022-10-03T07:16:27.480Z,69.26
2022-10-03T07:19:22.881Z,69.12
2022-10-03T07:22:01.622Z,69.03
2022-10-03T07:24:41.526Z,69.51
2022-10-03T07:27:27.732Z,69.61
2022-10-03T07:30:12.180Z,69.45
2022-10-03T07:33:06.562Z,70.57
2022-10-03T07:36:03.874Z,70.54
2022-10-03T07:38:58.233Z,69.92
2022-10-03T07:41:34.061Z,69.78
2022-10-03T07:44:06.348Z,69.79
2022-10-03T07:46:42.115Z,70.04
2022-10-03T07:49:27.384Z,70.04
2022-10-03T07:52:26.960Z,69.82
2022-10-03T07:55:43.888Z,69.45
2022-10-03T07:58:37.967Z,69.04
2022-10-03T08:01:35.702Z,69.03
2022-10-03T08:04:26.113Z,69.01
2022-10-03T08:07:14.612Z,68.94
2022-10-03T08:10:17.196Z,68.85
2022-10-03T08:13:24.773Z,68.47
2022-10-03T08:16:06.126Z,68.38
2022-10-03T08:19:00.819Z,68.50
2022-10-03T08:21:50.276Z,67.96
2022-10-03T08:24:54.254Z,68.50
2022-10-03T08:27:43.347Z,68.74
2022-10-03T08:30:15.206Z,68.61
2022-10-03T08:32:57.816Z,68.79
2022-10-03T08:35:49.126Z,69.07
2022-10-03T08:38:33.986Z,68.96
2022-10-03T08:41:18.128Z,68.49
2022-10-03T08:43:53.757Z,68.70
2022-10-03T08:46:42.230Z,68.80
2022-10-03T08:49:44.839Z,68.80
2022-10-03T08:52:23.307Z,68.68
2022-10-03T08:55:02.420Z,68.28
2022-10-03T08:58:00.277Z,68.52
2022-10-03T09:00:56.133Z,68.56
2022-10-03T09:03:42.794Z,68.35
2022-10-03T09:06:24.814Z,68.46
2022-10-03T09:09:05.880Z,68.42
2022-10-03T09:11:32.394Z,68.46
2022-10-03T09:14:05.107Z,68.23
2022-10-03T09:16:44.559Z,68.04
2022-10-03T09:19:27.190Z,68.12
2022-10-03T09:22:03.162Z,67.75
2022-10-03T09:25:03.967Z,67.82
2022-10-03T09:27:50.367Z,67.79
2022-10-03T09:30:30.992Z,67.65
2022-10-03T09:33:22.330Z,67.36
2022-10-03T09:36:04.522Z,67.47
2022-10-03T09:39:30.029Z,66.92
2022-10-03T09:42:27.503Z,66.88
2022-10-03T09:45:16.180Z,66.79
2022-10-03T09:48:04.997Z,66.75
2022-10-03T09:51:02.216Z,66.47
2022-10-03T09:53:59.750Z,66.48
2022-10-03T09:56:26.275Z,66.41
2022-10-03T09:59:12.116Z,65.36
2022-10-03T10:01:41.796Z,66.18
2022-10-03T10:04:54.315Z,65.44
2022-10-03T10:07:38.005Z,64.99
2022-10-03T10:10:42.023Z,65.20
2022-10-03T10:13:26.770Z,64.75
2022-10-03T10:16:15.296Z,64.83
2022-10-03T10:19:03.531Z,63.84
2022-10-03T10:21:30.079Z,65.26
2022-10-03T10:24:14.783Z,63.87
2022-10-03T10:27:35.666Z,62.83
2022-10-03T10:30:22.281Z,62.93
2022-10-03T10:33:03.711Z,62.96
2022-10-03T10:36:06.921Z,62.65
2022-10-03T10:39:07.120Z,61.59
2022-10-03T10:41:55.306Z,62.33
2022-10-03T10:45:06.343Z,60.93
2022-10-03T10:47:51.567Z,59.02
2022-10-03T10:50:36.709Z,58.66
2022-10-03T10:53:09.454Z,57.50
2022-10-03T10:55:54.422Z,57.90
2022-10-03T10:58:58.156Z,57.55
2022-10-03T11:01:30.951Z,59.36
2022-10-03T11:03:57.534Z,59.04
2022-10-03T11:07:16.533Z,57.21
2022-10-03T11:10:02.717Z,57.67
2022-10-03T11:12:41.129Z,56.75
2022-10-03T11:15:26.530Z,56.21
2022-10-03T11:18:08.456Z,56.32
2022-10-03T11:20:44.119Z,56.56
2022-10-03T11:23:16.402Z,57.00
2022-10-03T11:26:37.122Z,56.84
2022-10-03T11:29:06.621Z,58.06
2022-10-03T11:31:59.026Z,56.70
2022-10-03T11:34:43.101Z,59.19
2022-10-03T11:37:27.531Z,59.98
2022-10-03T11:40:21.836Z,58.85
2022-10-03T11:43:00.143Z,57.97
2022-10-03T11:45:33.317Z,56.40
2022-10-03T11:48:10.002Z,55.04
2022-10-03T11:51:01.466Z,53.34
2022-10-03T11:53:47.984Z,53.27
2022-10-03T11:56:44.895Z,52.92
2022-10-03T11:59:34.234Z,54.66
2022-10-03T12:02:10.181Z,55.77
2022-10-03T12:04:45.627Z,54.44
2022-10-03T12:07:43.217Z,54.70
2022-10-03T12:10:30.210Z,55.68
2022-10-03T12:12:57.992Z,55.96
2022-10-03T12:15:51.008Z,51.88
2022-10-03T12:18:45.528Z,51.65
2022-10-03T12:21:21.086Z,51.10
2022-10-03T12:24:20.939Z,51.27
2022-10-03T12:27:05.877Z,50.53
2022-10-03T12:29:36.299Z,49.93
2022-10-03T12:32:16.002Z,50.28
2022-10-03T12:35:00.117Z,47.25
2022-10-03T12:37:38.844Z,46.80
2022-10-03T12:40:12.377Z,46.96
2022-10-03T12:42:53.403Z,44.99
2022-10-03T12:45:27.574Z,43.96
2022-10-03T12:48:16.422Z,42.98
2022-10-03T12:50:59.603Z,45.02
2022-10-03T12:53:41.721Z,45.64
2022-10-03T12:56:25.087Z,46.69
2022-10-03T12:59:04.035Z,46.65
2022-10-03T13:02:03.068Z,46.51
2022-10-03T13:05:00.815Z,44.75
2022-10-03T13:08:02.411Z,44.89
2022-10-03T13:11:17.248Z,44.09
2022-10-03T13:14:19.138Z,44.21
2022-10-03T13:17:14.745Z,42.61
2022-10-03T13:20:06.570Z,42.78
2022-10-03T13:22:57.967Z,42.53
2022-10-03T13:25:36.203Z,42.33
2022-10-03T13:28:18.828Z,42.85
2022-10-03T13:31:00.135Z,41.85
2022-10-03T13:33:32.349Z,42.41
2022-10-03T13:36:26.796Z,42.51
2022-10-03T13:38:55.144Z,43.27
2022-10-03T13:41:46.751Z,43.38
2022-10-03T13:44:36.335Z,44.41
2022-10-03T13:47:27.255Z,44.81
2022-10-03T13:49:58.815Z,44.87
2022-10-03T13:52:43.387Z,45.14
2022-10-03T13:55:13.230Z,45.56
2022-10-03T13:57:47.614Z,44.27
2022-10-03T14:00:21.176Z,45.00
2022-10-03T14:03:17.181Z,43.68
2022-10-03T14:06:11.669Z,42.86
2022-10-03T14:09:10.222Z,43.15
2022-10-03T14:11:47.793Z,42.71
2022-10-03T14:14:25.369Z,43.38
2022-10-03T14:17:00.801Z,41.90
2022-10-03T14:19:53.389Z,42.84
2022-10-03T14:22:36.119Z,42.93
2022-10-03T14:25:27.760Z,43.26
2022-10-03T14:28:08.134Z,42.73
2022-10-03T14:31:07.284Z,43.53
2022-10-03T14:34:15.941Z,43.44
2022-10-03T14:37:03.980Z,43.95
2022-10-03T14:40:13.585Z,44.57
2022-10-03T14:42:58.988Z,45.17
2022-10-03T14:45:39.050Z,44.93
2022-10-03T14:48:17.795Z,45.80
2022-10-03T14:50:48.887Z,46.72
2022-10-03T14:53:25.126Z,46.62
2022-10-03T14:55:51.600Z,47.13
2022-10-03T14:58:21.821Z,47.30
2022-10-03T15:01:28.798Z,47.00
2022-10-03T15:04:04.347Z,46.62
2022-10-03T15:06:33.000Z,47.06
2022-10-03T15:09:02.619Z,46.80
2022-10-03T15:11:47.791Z,46.95
2022-10-03T15:14:14.777Z,46.96
2022-10-03T15:16:48.835Z,46.77
2022-10-03T15:19:20.194Z,47.15
2022-10-03T15:21:50.940Z,47.58
2022-10-03T15:24:25.142Z,47.60
2022-10-03T15:26:59.987Z,48.17
2022-10-03T15:29:28.272Z,48.25
2022-10-03T15:31:58.064Z,48.32
2022-10-03T15:34:32.258Z,48.31
2022-10-03T15:37:10.901Z,48.18
2022-10-03T15:39:44.011Z,48.78
2022-10-03T15:42:10.497Z,48.84
2022-10-03T15:44:40.054Z,48.55
2022-10-03T15:47:13.777Z,48.61
2022-10-03T15:49:50.257Z,48.82
2022-10-03T15:52:19.849Z,49.14
2022-10-03T15:54:54.705Z,48.99
2022-10-03T15:57:31.888Z,49.59
2022-10-03T16:00:03.317Z,49.12
2022-10-03T16:02:30.313Z,49.45
2022-10-03T16:04:58.141Z,49.52
2022-10-03T16:07:36.988Z,49.53
2022-10-03T16:10:21.012Z,49.28
2022-10-03T16:13:03.580Z,49.59
2022-10-03T16:15:49.589Z,49.85
2022-10-03T16:18:19.207Z,49.87
2022-10-03T16:21:06.124Z,49.81
2022-10-03T16:23:37.950Z,49.77
2022-10-03T16:26:08.335Z,49.61
2022-10-03T16:28:44.375Z,49.65
2022-10-03T16:31:32.856Z,49.87
2022-10-03T16:34:03.930Z,50.05
2022-10-03T16:36:40.322Z,50.28
2022-10-03T16:39:23.855Z,50.36
2022-10-03T16:41:55.943Z,50.50
2022-10-03T16:44:34.309Z,50.71
2022-10-03T16:47:03.569Z,50.97
2022-10-03T16:49:48.789Z,51.41
2022-10-03T16:52:38.228Z,51.23
2022-10-03T16:55:12.940Z,51.22
2022-10-03T16:57:46.195Z,51.81
2022-10-03T17:00:25.552Z,51.44
2022-10-03T17:02:54.199Z,51.83
2022-10-03T17:05:21.245Z,51.51
2022-10-03T17:08:23.628Z,51.76
2022-10-03T17:10:55.916Z,52.04
2022-10-03T17:13:28.591Z,52.05
2022-10-03T17:16:09.147Z,52.26
2022-10-03T17:18:44.663Z,52.41
2022-10-03T17:21:31.267Z,52.37
2022-10-03T17:24:03.682Z,52.54
2022-10-03T17:26:36.030Z,52.72
2022-10-03T17:29:18.145Z,52.80
2022-10-03T17:31:47.841Z,52.73
2022-10-03T17:34:22.633Z,52.86
2022-10-03T17:37:13.572Z,53.09
2022-10-03T17:39:50.481Z,52.89
2022-10-03T17:42:37.964Z,53.00
2022-10-03T17:45:30.686Z,53.40
2022-10-03T17:48:06.883Z,53.21
2022-10-03T17:50:51.517Z,53.31
2022-10-03T17:53:38.518Z,53.51
2022-10-03T17:56:20.510Z,53.29
2022-10-03T17:59:03.094Z,53.49
2022-10-03T18:01:36.794Z,53.70
2022-10-03T18:04:10.770Z,53.91
2022-10-03T18:07:13.637Z,54.01
2022-10-03T18:09:47.617Z,53.93
2022-10-03T18:12:32.180Z,54.20
2022-10-03T18:15:16.372Z,54.14
2022-10-03T18:18:09.138Z,54.53
2022-10-03T18:20:58.531Z,54.79
2022-10-03T18:24:00.324Z,54.49
2022-10-03T18:26:40.519Z,54.39
2022-10-03T18:29:19.101Z,55.23
2022-10-03T18:31:55.563Z,55.16
2022-10-03T18:34:46.041Z,55.06
2022-10-03T18:37:30.856Z,55.05
2022-10-03T18:39:59.409Z,55.29
2022-10-03T18:42:28.364Z,55.20
2022-10-03T18:44:57.440Z,55.14
2022-10-03T18:47:44.019Z,55.39
2022-10-03T18:50:26.638Z,55.56
2022-10-03T18:52:59.347Z,55.69
2022-10-03T18:55:37.782Z,55.69
2022-10-03T18:58:19.154Z,55.60
2022-10-03T19:00:55.906Z,55.80
2022-10-03T19:03:34.291Z,55.67
2022-10-03T19:06:08.196Z,55.87
2022-10-03T19:08:42.313Z,55.78
2022-10-03T19:11:17.791Z,55.93
2022-10-03T19:13:56.332Z,56.05
2022-10-03T19:16:35.101Z,56.18
2022-10-03T19:19:33.981Z,56.18
2022-10-03T19:22:06.536Z,56.13
2022-10-03T19:24:57.199Z,56.04
2022-10-03T19:27:38.336Z,56.35
2022-10-03T19:30:06.765Z,56.20
2022-10-03T19:32:53.595Z,56.47
2022-10-03T19:35:23.297Z,56.49
2022-10-03T19:37:51.950Z,56.55
2022-10-03T19:40:30.743Z,56.91
2022-10-03T19:43:17.507Z,57.08
2022-10-03T19:46:02.308Z,57.08
2022-10-03T19:48:32.288Z,56.83
2022-10-03T19:51:09.877Z,57.20
2022-10-03T19:53:42.585Z,57.29
2022-10-03T19:56:15.689Z,57.30
2022-10-03T19:58:46.096Z,57.30
2022-10-03T20:01:13.376Z,57.11
2022-10-03T20:03:52.212Z,57.37
2022-10-03T20:06:23.769Z,57.61
2022-10-03T20:09:07.551Z,57.71
2022-10-03T20:11:47.799Z,57.76
2022-10-03T20:14:19.770Z,57.61
2022-10-03T20:16:48.977Z,57.73
2022-10-03T20:19:22.295Z,58.02
2022-10-03T20:21:57.542Z,58.14
2022-10-03T20:24:33.955Z,58.15
2022-10-03T20:27:12.483Z,58.20
2022-10-03T20:30:17.516Z,58.18
2022-10-03T20:32:46.351Z,58.25
2022-10-03T20:35:42.163Z,58.49
2022-10-03T20:38:27.102Z,58.42
2022-10-03T20:41:01.285Z,58.40
2022-10-03T20:43:41.617Z,58.65
2022-10-03T20:46:15.891Z,58.54
2022-10-03T20:49:15.810Z,58.65
2022-10-03T20:51:56.429Z,58.73
2022-10-03T20:54:48.852Z,58.68
2022-10-03T20:57:20.043Z,58.43
2022-10-03T20:59:49.813Z,58.45
2022-10-03T21:02:36.978Z,58.63
2022-10-03T21:05:18.129Z,58.70
2022-10-03T21:07:52.266Z,58.71
2022-10-03T21:10:24.813Z,58.81
2022-10-03T21:13:01.711Z,58.65
2022-10-03T21:15:51.101Z,58.83
2022-10-03T21:18:22.778Z,58.65
2022-10-03T21:21:03.471Z,58.94
2022-10-03T21:23:35.289Z,58.82
2022-10-03T21:26:02.502Z,58.73
2022-10-03T21:28:34.627Z,59.00
2022-10-03T21:31:23.855Z,59.20
2022-10-03T21:34:15.856Z,59.28
2022-10-03T21:36:57.894Z,59.48
2022-10-03T21:39:37.585Z,59.29
2022-10-03T21:42:28.439Z,59.52
2022-10-03T21:45:13.837Z,59.53
2022-10-03T21:47:52.965Z,59.63
2022-10-03T21:50:23.992Z,59.60
2022-10-03T21:52:55.820Z,59.84
2022-10-03T21:55:53.369Z,59.67
2022-10-03T21:58:49.895Z,59.66
2022-10-03T22:01:29.539Z,59.57
2022-10-03T22:04:15.696Z,59.64
2022-10-03T22:07:02.744Z,59.67
2022-10-03T22:09:29.453Z,59.51
2022-10-03T22:12:01.344Z,59.72
2022-10-03T22:15:03.407Z,59.95
2022-10-03T22:17:35.273Z,59.61
2022-10-03T22:20:29.917Z,59.95
2022-10-03T22:23:02.733Z,59.72
2022-10-03T22:25:39.149Z,59.79
2022-10-03T22:28:33.821Z,60.15
2022-10-03T22:31:25.227Z,60.18
2022-10-03T22:34:22.901Z,59.98
2022-10-03T22:36:50.314Z,59.84
2022-10-03T22:39:18.842Z,59.80
2022-10-03T22:41:50.490Z,59.77
2022-10-03T22:44:19.927Z,59.73
2022-10-03T22:46:52.052Z,59.71
2022-10-03T22:49:28.799Z,59.75
2022-10-03T22:51:57.798Z,59.92
2022-10-03T22:54:33.573Z,59.69
2022-10-03T22:57:06.319Z,59.76
2022-10-03T22:59:38.559Z,59.79
2022-10-03T23:02:08.375Z,59.83
2022-10-03T23:04:39.738Z,59.78
2022-10-03T23:07:32.435Z,59.72
2022-10-03T23:10:10.916Z,59.72
2022-10-03T23:12:44.300Z,59.69
2022-10-03T23:15:16.665Z,59.84
2022-10-03T23:18:01.503Z,59.74
2022-10-03T23:20:34.096Z,59.85
2022-10-03T23:23:11.900Z,59.91
2022-10-03T23:26:23.984Z,59.80
2022-10-03T23:29:11.065Z,59.93
2022-10-03T23:31:50.004Z,59.84
2022-10-03T23:34:37.801Z,59.87
2022-10-03T23:37:23.665Z,60.10
2022-10-03T23:39:56.196Z,60.04
2022-10-03T23:42:31.659Z,60.28
2022-10-03T23:45:12.166Z,60.15
2022-10-03T23:47:47.112Z,60.19
2022-10-03T23:50:24.899Z,60.12
2022-10-03T23:52:58.349Z,60.18
2022-10-03T23:55:28.985Z,60.10
2022-10-03T23:57:56.234Z,60.03
